sensor_id;sensor_type;location;lat;lon;timestamp;P1;durP1;ratioP1;P2;durP2;ratioP2
66402;SDS011;53212;52.112;5.144;2022-10-16T00:01:19;3.30;;;1.40;;
66402;SDS011;53212;52.112;5.144;2022-10-16T00:03:47;2.70;;;1.60;;
66402;SDS011;53212;52.112;5.144;2022-10-16T00:06:14;3.80;;;1.50;;
66402;SDS011;53212;52.112;5.144;2022-10-16T00:08:41;3.30;;;1.60;;
66402;SDS011;53212;52.112;5.144;2022-10-16T00:11:10;4.90;;;1.30;;
66402;SDS011;53212;52.112;5.144;2022-10-16T00:13:40;3.90;;;1.60;;
66402;SDS011;53212;52.112;5.144;2022-10-16T00:16:07;2.90;;;1.40;;
66402;SDS011;53212;52.112;5.144;2022-10-16T00:18:34;3.30;;;1.70;;
66402;SDS011;53212;52.112;5.144;2022-10-16T00:23:35;2.70;;;1.30;;
66402;SDS011;53212;52.112;5.144;2022-10-16T00:26:03;1.20;;;1.10;;
66402;SDS011;53212;52.112;5.144;2022-10-16T00:28:31;4.10;;;1.70;;
66402;SDS011;53212;52.112;5.144;2022-10-16T00:30:57;5.00;;;1.30;;
66402;SDS011;53212;52.112;5.144;2022-10-16T00:33:22;3.50;;;1.60;;
66402;SDS011;53212;52.112;5.144;2022-10-16T00:35:48;2.20;;;1.50;;
66402;SDS011;53212;52.112;5.144;2022-10-16T00:38:14;1.90;;;1.40;;
66402;SDS011;53212;52.112;5.144;2022-10-16T00:40:40;4.70;;;1.90;;
66402;SDS011;53212;52.112;5.144;2022-10-16T00:45:57;4.80;;;1.80;;
66402;SDS011;53212;52.112;5.144;2022-10-16T00:48:23;2.70;;;1.40;;
66402;SDS011;53212;52.112;5.144;2022-10-16T00:50:49;5.10;;;1.90;;
66402;SDS011;53212;52.112;5.144;2022-10-16T00:53:14;6.80;;;2.00;;
66402;SDS011;53212;52.112;5.144;2022-10-16T00:55:41;3.10;;;1.80;;
66402;SDS011;53212;52.112;5.144;2022-10-16T00:58:07;3.00;;;1.80;;
66402;SDS011;53212;52.112;5.144;2022-10-16T01:00:33;2.50;;;1.60;;
66402;SDS011;53212;52.112;5.144;2022-10-16T01:03:00;2.10;;;1.60;;
66402;SDS011;53212;52.112;5.144;2022-10-16T01:05:41;2.40;;;1.70;;
66402;SDS011;53212;52.112;5.144;2022-10-16T01:08:21;2.50;;;1.80;;
66402;SDS011;53212;52.112;5.144;2022-10-16T01:11:03;2.30;;;1.50;;
66402;SDS011;53212;52.112;5.144;2022-10-16T01:13:41;2.10;;;1.40;;
66402;SDS011;53212;52.112;5.144;2022-10-16T01:16:16;1.90;;;1.40;;
66402;SDS011;53212;52.112;5.144;2022-10-16T01:18:53;7.40;;;2.00;;
66402;SDS011;53212;52.112;5.144;2022-10-16T01:27:22;5.50;;;2.00;;
66402;SDS011;53212;52.112;5.144;2022-10-16T01:29:53;2.10;;;1.50;;
66402;SDS011;53212;52.112;5.144;2022-10-16T01:32:45;3.10;;;1.60;;
66402;SDS011;53212;52.112;5.144;2022-10-16T01:35:31;3.70;;;2.30;;
66402;SDS011;53212;52.112;5.144;2022-10-16T01:38:15;4.60;;;1.70;;
66402;SDS011;53212;52.112;5.144;2022-10-16T01:40:46;2.50;;;1.80;;
66402;SDS011;53212;52.112;5.144;2022-10-16T01:43:22;6.60;;;1.60;;
66402;SDS011;53212;52.112;5.144;2022-10-16T01:45:52;3.20;;;1.80;;
66402;SDS011;53212;52.112;5.144;2022-10-16T01:48:18;1.50;;;1.20;;
66402;SDS011;53212;52.112;5.144;2022-10-16T01:50:55;2.40;;;1.60;;
66402;SDS011;53212;52.112;5.144;2022-10-16T01:53:26;4.10;;;2.00;;
66402;SDS011;53212;52.112;5.144;2022-10-16T01:55:52;3.40;;;2.40;;
66402;SDS011;53212;52.112;5.144;2022-10-16T01:58:20;5.90;;;2.30;;
66402;SDS011;53212;52.112;5.144;2022-10-16T02:00:47;2.60;;;1.60;;
66402;SDS011;53212;52.112;5.144;2022-10-16T02:03:15;4.30;;;2.40;;
66402;SDS011;53212;52.112;5.144;2022-10-16T02:05:51;2.80;;;2.00;;
66402;SDS011;53212;52.112;5.144;2022-10-16T02:08:19;4.80;;;2.00;;
66402;SDS011;53212;52.112;5.144;2022-10-16T02:10:46;4.40;;;2.10;;
66402;SDS011;53212;52.112;5.144;2022-10-16T02:13:22;5.50;;;1.90;;
66402;SDS011;53212;52.112;5.144;2022-10-16T02:15:52;2.70;;;1.50;;
66402;SDS011;53212;52.112;5.144;2022-10-16T02:18:18;5.30;;;2.10;;
66402;SDS011;53212;52.112;5.144;2022-10-16T02:20:57;3.90;;;1.70;;
66402;SDS011;53212;52.112;5.144;2022-10-16T02:24:03;3.30;;;2.30;;
66402;SDS011;53212;52.112;5.144;2022-10-16T02:26:38;3.80;;;2.10;;
66402;SDS011;53212;52.112;5.144;2022-10-16T02:29:12;5.20;;;2.30;;
66402;SDS011;53212;52.112;5.144;2022-10-16T02:31:41;5.30;;;2.30;;
66402;SDS011;53212;52.112;5.144;2022-10-16T02:34:12;3.90;;;1.70;;
66402;SDS011;53212;52.112;5.144;2022-10-16T02:36:39;3.00;;;2.20;;
66402;SDS011;53212;52.112;5.144;2022-10-16T02:39:07;3.60;;;2.00;;
66402;SDS011;53212;52.112;5.144;2022-10-16T02:41:33;3.30;;;2.20;;
66402;SDS011;53212;52.112;5.144;2022-10-16T02:43:59;3.10;;;2.00;;
66402;SDS011;53212;52.112;5.144;2022-10-16T02:46:24;9.10;;;2.10;;
66402;SDS011;53212;52.112;5.144;2022-10-16T02:48:49;4.70;;;2.00;;
66402;SDS011;53212;52.112;5.144;2022-10-16T02:51:15;3.90;;;2.00;;
66402;SDS011;53212;52.112;5.144;2022-10-16T02:53:40;2.00;;;1.90;;
66402;SDS011;53212;52.112;5.144;2022-10-16T02:56:06;4.10;;;2.00;;
66402;SDS011;53212;52.112;5.144;2022-10-16T02:58:31;4.60;;;2.10;;
66402;SDS011;53212;52.112;5.144;2022-10-16T03:00:57;3.80;;;2.10;;
66402;SDS011;53212;52.112;5.144;2022-10-16T03:03:22;4.30;;;1.80;;
66402;SDS011;53212;52.112;5.144;2022-10-16T03:05:47;3.40;;;1.70;;
66402;SDS011;53212;52.112;5.144;2022-10-16T03:08:13;2.50;;;2.00;;
66402;SDS011;53212;52.112;5.144;2022-10-16T03:10:39;3.90;;;1.50;;
66402;SDS011;53212;52.112;5.144;2022-10-16T03:13:04;2.60;;;1.60;;
66402;SDS011;53212;52.112;5.144;2022-10-16T03:15:30;2.90;;;1.90;;
66402;SDS011;53212;52.112;5.144;2022-10-16T03:17:58;2.30;;;1.70;;
66402;SDS011;53212;52.112;5.144;2022-10-16T03:20:25;4.30;;;1.80;;
66402;SDS011;53212;52.112;5.144;2022-10-16T03:22:51;4.10;;;1.70;;
66402;SDS011;53212;52.112;5.144;2022-10-16T03:25:17;2.60;;;1.50;;
66402;SDS011;53212;52.112;5.144;2022-10-16T03:27:42;4.00;;;1.60;;
66402;SDS011;53212;52.112;5.144;2022-10-16T03:30:08;1.70;;;1.40;;
66402;SDS011;53212;52.112;5.144;2022-10-16T03:32:34;1.50;;;1.30;;
66402;SDS011;53212;52.112;5.144;2022-10-16T03:34:59;2.40;;;1.80;;
66402;SDS011;53212;52.112;5.144;2022-10-16T03:37:25;3.20;;;1.70;;
66402;SDS011;53212;52.112;5.144;2022-10-16T03:39:50;2.00;;;1.80;;
66402;SDS011;53212;52.112;5.144;2022-10-16T03:42:16;3.10;;;1.60;;
66402;SDS011;53212;52.112;5.144;2022-10-16T03:44:42;2.20;;;1.70;;
66402;SDS011;53212;52.112;5.144;2022-10-16T03:47:07;2.80;;;1.50;;
66402;SDS011;53212;52.112;5.144;2022-10-16T03:49:32;5.40;;;1.90;;
66402;SDS011;53212;52.112;5.144;2022-10-16T03:51:58;3.80;;;1.60;;
66402;SDS011;53212;52.112;5.144;2022-10-16T03:54:23;2.10;;;1.40;;
66402;SDS011;53212;52.112;5.144;2022-10-16T03:56:49;2.40;;;1.50;;
66402;SDS011;53212;52.112;5.144;2022-10-16T03:59:14;2.60;;;1.30;;
66402;SDS011;53212;52.112;5.144;2022-10-16T04:01:40;2.30;;;1.90;;
66402;SDS011;53212;52.112;5.144;2022-10-16T04:04:05;2.40;;;1.30;;
66402;SDS011;53212;52.112;5.144;2022-10-16T04:06:31;2.80;;;1.20;;
66402;SDS011;53212;52.112;5.144;2022-10-16T04:08:56;1.50;;;1.40;;
66402;SDS011;53212;52.112;5.144;2022-10-16T04:11:22;2.40;;;1.40;;
66402;SDS011;53212;52.112;5.144;2022-10-16T04:13:47;2.10;;;1.60;;
66402;SDS011;53212;52.112;5.144;2022-10-16T04:16:13;3.70;;;1.70;;
66402;SDS011;53212;52.112;5.144;2022-10-16T04:18:38;1.70;;;1.50;;
66402;SDS011;53212;52.112;5.144;2022-10-16T04:21:04;5.10;;;1.70;;
66402;SDS011;53212;52.112;5.144;2022-10-16T04:23:31;2.00;;;1.20;;
66402;SDS011;53212;52.112;5.144;2022-10-16T04:25:56;2.20;;;1.30;;
66402;SDS011;53212;52.112;5.144;2022-10-16T04:28:22;2.30;;;1.20;;
66402;SDS011;53212;52.112;5.144;2022-10-16T04:30:47;4.90;;;1.40;;
66402;SDS011;53212;52.112;5.144;2022-10-16T04:33:13;2.50;;;1.50;;
66402;SDS011;53212;52.112;5.144;2022-10-16T04:35:38;2.50;;;1.40;;
66402;SDS011;53212;52.112;5.144;2022-10-16T04:38:04;2.80;;;1.30;;
66402;SDS011;53212;52.112;5.144;2022-10-16T04:40:29;3.60;;;1.60;;
66402;SDS011;53212;52.112;5.144;2022-10-16T04:42:58;2.30;;;1.60;;
66402;SDS011;53212;52.112;5.144;2022-10-16T04:45:24;3.20;;;1.70;;
66402;SDS011;53212;52.112;5.144;2022-10-16T04:47:50;2.00;;;1.30;;
66402;SDS011;53212;52.112;5.144;2022-10-16T04:50:15;1.30;;;1.10;;
66402;SDS011;53212;52.112;5.144;2022-10-16T04:52:41;3.30;;;1.30;;
66402;SDS011;53212;52.112;5.144;2022-10-16T04:55:07;2.20;;;1.40;;
66402;SDS011;53212;52.112;5.144;2022-10-16T04:57:33;1.80;;;1.10;;
66402;SDS011;53212;52.112;5.144;2022-10-16T04:59:58;2.80;;;1.50;;
66402;SDS011;53212;52.112;5.144;2022-10-16T05:02:24;1.40;;;1.10;;
66402;SDS011;53212;52.112;5.144;2022-10-16T05:04:50;2.50;;;1.40;;
66402;SDS011;53212;52.112;5.144;2022-10-16T05:07:16;1.50;;;1.30;;
66402;SDS011;53212;52.112;5.144;2022-10-16T05:09:41;2.60;;;1.30;;
66402;SDS011;53212;52.112;5.144;2022-10-16T05:12:07;2.60;;;1.30;;
66402;SDS011;53212;52.112;5.144;2022-10-16T05:14:32;4.20;;;1.50;;
66402;SDS011;53212;52.112;5.144;2022-10-16T05:16:59;2.10;;;1.30;;
66402;SDS011;53212;52.112;5.144;2022-10-16T05:19:25;1.40;;;1.00;;
66402;SDS011;53212;52.112;5.144;2022-10-16T05:21:51;5.30;;;1.40;;
66402;SDS011;53212;52.112;5.144;2022-10-16T05:24:16;1.80;;;1.40;;
66402;SDS011;53212;52.112;5.144;2022-10-16T05:26:42;2.40;;;1.20;;
66402;SDS011;53212;52.112;5.144;2022-10-16T05:29:07;4.30;;;1.60;;
66402;SDS011;53212;52.112;5.144;2022-10-16T05:31:32;4.20;;;2.30;;
66402;SDS011;53212;52.112;5.144;2022-10-16T05:33:59;1.90;;;1.50;;
66402;SDS011;53212;52.112;5.144;2022-10-16T05:36:25;3.70;;;1.40;;
66402;SDS011;53212;52.112;5.144;2022-10-16T05:38:51;2.20;;;1.50;;
66402;SDS011;53212;52.112;5.144;2022-10-16T05:41:18;2.20;;;1.30;;
66402;SDS011;53212;52.112;5.144;2022-10-16T05:43:48;1.90;;;1.40;;
66402;SDS011;53212;52.112;5.144;2022-10-16T05:46:14;2.40;;;1.30;;
66402;SDS011;53212;52.112;5.144;2022-10-16T05:48:40;2.20;;;1.60;;
66402;SDS011;53212;52.112;5.144;2022-10-16T05:51:08;2.80;;;1.40;;
66402;SDS011;53212;52.112;5.144;2022-10-16T05:53:36;4.70;;;1.50;;
66402;SDS011;53212;52.112;5.144;2022-10-16T05:56:04;3.00;;;1.40;;
66402;SDS011;53212;52.112;5.144;2022-10-16T05:58:33;3.60;;;1.60;;
66402;SDS011;53212;52.112;5.144;2022-10-16T06:01:09;3.40;;;1.60;;
66402;SDS011;53212;52.112;5.144;2022-10-16T06:03:37;2.50;;;1.70;;
66402;SDS011;53212;52.112;5.144;2022-10-16T06:06:13;3.10;;;1.90;;
66402;SDS011;53212;52.112;5.144;2022-10-16T06:08:41;2.10;;;1.60;;
66402;SDS011;53212;52.112;5.144;2022-10-16T06:11:11;5.30;;;1.40;;
66402;SDS011;53212;52.112;5.144;2022-10-16T06:13:37;2.40;;;1.70;;
66402;SDS011;53212;52.112;5.144;2022-10-16T06:16:05;1.90;;;1.30;;
66402;SDS011;53212;52.112;5.144;2022-10-16T06:18:30;4.30;;;1.90;;
66402;SDS011;53212;52.112;5.144;2022-10-16T06:20:56;3.60;;;1.50;;
66402;SDS011;53212;52.112;5.144;2022-10-16T06:23:23;3.60;;;1.80;;
66402;SDS011;53212;52.112;5.144;2022-10-16T06:25:49;2.30;;;1.70;;
66402;SDS011;53212;52.112;5.144;2022-10-16T06:28:14;2.60;;;1.70;;
66402;SDS011;53212;52.112;5.144;2022-10-16T06:30:41;3.70;;;1.90;;
66402;SDS011;53212;52.112;5.144;2022-10-16T06:33:09;4.30;;;1.70;;
66402;SDS011;53212;52.112;5.144;2022-10-16T06:35:35;3.40;;;1.60;;
66402;SDS011;53212;52.112;5.144;2022-10-16T06:38:00;2.20;;;1.70;;
66402;SDS011;53212;52.112;5.144;2022-10-16T06:40:26;4.40;;;1.80;;
66402;SDS011;53212;52.112;5.144;2022-10-16T06:42:51;2.80;;;1.80;;
66402;SDS011;53212;52.112;5.144;2022-10-16T06:45:20;2.80;;;1.60;;
66402;SDS011;53212;52.112;5.144;2022-10-16T06:47:45;2.90;;;1.80;;
66402;SDS011;53212;52.112;5.144;2022-10-16T06:50:10;2.80;;;1.40;;
66402;SDS011;53212;52.112;5.144;2022-10-16T06:52:36;3.50;;;1.70;;
66402;SDS011;53212;52.112;5.144;2022-10-16T06:55:02;3.10;;;2.10;;
66402;SDS011;53212;52.112;5.144;2022-10-16T06:57:28;5.60;;;1.50;;
66402;SDS011;53212;52.112;5.144;2022-10-16T06:59:53;5.90;;;1.50;;
66402;SDS011;53212;52.112;5.144;2022-10-16T07:02:19;4.30;;;1.10;;
66402;SDS011;53212;52.112;5.144;2022-10-16T07:04:44;3.80;;;1.60;;
66402;SDS011;53212;52.112;5.144;2022-10-16T07:07:10;6.60;;;1.50;;
66402;SDS011;53212;52.112;5.144;2022-10-16T07:09:35;4.30;;;1.00;;
66402;SDS011;53212;52.112;5.144;2022-10-16T07:12:01;1.80;;;1.30;;
66402;SDS011;53212;52.112;5.144;2022-10-16T07:14:26;6.50;;;1.40;;
66402;SDS011;53212;52.112;5.144;2022-10-16T07:16:52;3.90;;;1.40;;
66402;SDS011;53212;52.112;5.144;2022-10-16T07:19:18;2.70;;;1.10;;
66402;SDS011;53212;52.112;5.144;2022-10-16T07:21:43;1.40;;;1.00;;
66402;SDS011;53212;52.112;5.144;2022-10-16T07:24:14;5.40;;;1.40;;
66402;SDS011;53212;52.112;5.144;2022-10-16T07:29:17;4.70;;;1.40;;
66402;SDS011;53212;52.112;5.144;2022-10-16T07:31:44;2.90;;;0.90;;
66402;SDS011;53212;52.112;5.144;2022-10-16T07:34:12;4.30;;;1.20;;
66402;SDS011;53212;52.112;5.144;2022-10-16T07:36:38;3.20;;;1.40;;
66402;SDS011;53212;52.112;5.144;2022-10-16T07:39:04;3.90;;;1.40;;
66402;SDS011;53212;52.112;5.144;2022-10-16T07:41:30;4.60;;;2.20;;
66402;SDS011;53212;52.112;5.144;2022-10-16T07:43:58;2.30;;;1.00;;
66402;SDS011;53212;52.112;5.144;2022-10-16T07:46:25;2.90;;;1.20;;
66402;SDS011;53212;52.112;5.144;2022-10-16T07:48:51;1.70;;;1.10;;
66402;SDS011;53212;52.112;5.144;2022-10-16T07:51:19;2.20;;;1.20;;
66402;SDS011;53212;52.112;5.144;2022-10-16T07:53:46;3.00;;;1.30;;
66402;SDS011;53212;52.112;5.144;2022-10-16T07:56:13;2.60;;;1.50;;
66402;SDS011;53212;52.112;5.144;2022-10-16T07:58:39;3.00;;;1.40;;
66402;SDS011;53212;52.112;5.144;2022-10-16T08:01:06;2.40;;;1.30;;
66402;SDS011;53212;52.112;5.144;2022-10-16T08:03:34;5.30;;;1.60;;
66402;SDS011;53212;52.112;5.144;2022-10-16T08:05:59;6.10;;;1.80;;
66402;SDS011;53212;52.112;5.144;2022-10-16T08:08:26;2.60;;;1.20;;
66402;SDS011;53212;52.112;5.144;2022-10-16T08:10:52;1.90;;;1.60;;
66402;SDS011;53212;52.112;5.144;2022-10-16T08:13:18;4.80;;;1.60;;
66402;SDS011;53212;52.112;5.144;2022-10-16T08:15:44;6.70;;;1.70;;
66402;SDS011;53212;52.112;5.144;2022-10-16T08:18:11;3.90;;;1.40;;
66402;SDS011;53212;52.112;5.144;2022-10-16T08:20:38;5.00;;;1.30;;
66402;SDS011;53212;52.112;5.144;2022-10-16T08:23:04;3.90;;;1.60;;
66402;SDS011;53212;52.112;5.144;2022-10-16T08:25:31;2.30;;;1.30;;
66402;SDS011;53212;52.112;5.144;2022-10-16T08:27:56;3.60;;;1.30;;
66402;SDS011;53212;52.112;5.144;2022-10-16T08:30:22;6.00;;;1.80;;
66402;SDS011;53212;52.112;5.144;2022-10-16T08:32:48;3.90;;;1.30;;
66402;SDS011;53212;52.112;5.144;2022-10-16T08:35:15;2.80;;;1.30;;
66402;SDS011;53212;52.112;5.144;2022-10-16T08:37:41;5.40;;;1.40;;
66402;SDS011;53212;52.112;5.144;2022-10-16T08:40:11;5.60;;;1.50;;
66402;SDS011;53212;52.112;5.144;2022-10-16T08:48:29;4.80;;;1.50;;
66402;SDS011;53212;52.112;5.144;2022-10-16T08:51:02;6.50;;;1.30;;
66402;SDS011;53212;52.112;5.144;2022-10-16T08:53:43;7.10;;;1.70;;
66402;SDS011;53212;52.112;5.144;2022-10-16T08:56:22;5.40;;;1.60;;
66402;SDS011;53212;52.112;5.144;2022-10-16T08:58:48;4.70;;;1.50;;
66402;SDS011;53212;52.112;5.144;2022-10-16T09:01:16;3.80;;;1.30;;
66402;SDS011;53212;52.112;5.144;2022-10-16T09:07:00;4.80;;;1.50;;
66402;SDS011;53212;52.112;5.144;2022-10-16T09:10:00;5.40;;;1.80;;
66402;SDS011;53212;52.112;5.144;2022-10-16T09:15:34;5.40;;;1.60;;
66402;SDS011;53212;52.112;5.144;2022-10-16T09:20:51;4.90;;;1.70;;
66402;SDS011;53212;52.112;5.144;2022-10-16T09:23:27;3.90;;;1.50;;
66402;SDS011;53212;52.112;5.144;2022-10-16T09:25:55;12.60;;;1.80;;
66402;SDS011;53212;52.112;5.144;2022-10-16T09:28:23;5.30;;;1.40;;
66402;SDS011;53212;52.112;5.144;2022-10-16T09:30:48;1.30;;;0.90;;
66402;SDS011;53212;52.112;5.144;2022-10-16T09:33:15;5.70;;;1.70;;
66402;SDS011;53212;52.112;5.144;2022-10-16T09:35:48;7.10;;;1.40;;
66402;SDS011;53212;52.112;5.144;2022-10-16T09:38:26;5.30;;;1.50;;
66402;SDS011;53212;52.112;5.144;2022-10-16T09:40:57;6.10;;;1.90;;
66402;SDS011;53212;52.112;5.144;2022-10-16T09:46:07;9.20;;;2.00;;
66402;SDS011;53212;52.112;5.144;2022-10-16T09:48:43;5.40;;;1.20;;
66402;SDS011;53212;52.112;5.144;2022-10-16T09:51:22;6.00;;;1.50;;
66402;SDS011;53212;52.112;5.144;2022-10-16T09:54:16;5.50;;;1.70;;
66402;SDS011;53212;52.112;5.144;2022-10-16T09:56:41;4.30;;;1.20;;
66402;SDS011;53212;52.112;5.144;2022-10-16T10:01:48;7.90;;;1.80;;
66402;SDS011;53212;52.112;5.144;2022-10-16T10:04:16;6.90;;;1.60;;
66402;SDS011;53212;52.112;5.144;2022-10-16T10:06:55;7.00;;;1.60;;
66402;SDS011;53212;52.112;5.144;2022-10-16T10:09:24;5.00;;;1.40;;
66402;SDS011;53212;52.112;5.144;2022-10-16T10:11:57;6.50;;;1.40;;
66402;SDS011;53212;52.112;5.144;2022-10-16T10:17:26;5.40;;;1.80;;
66402;SDS011;53212;52.112;5.144;2022-10-16T10:27:50;6.20;;;2.20;;
66402;SDS011;53212;52.112;5.144;2022-10-16T10:33:21;5.00;;;1.60;;
66402;SDS011;53212;52.112;5.144;2022-10-16T10:39:15;5.80;;;1.40;;
66402;SDS011;53212;52.112;5.144;2022-10-16T10:42:03;3.70;;;1.80;;
66402;SDS011;53212;52.112;5.144;2022-10-16T10:50:54;6.40;;;2.00;;
66402;SDS011;53212;52.112;5.144;2022-10-16T10:53:41;3.70;;;1.20;;
66402;SDS011;53212;52.112;5.144;2022-10-16T10:56:44;5.10;;;2.00;;
66402;SDS011;53212;52.112;5.144;2022-10-16T10:59:24;8.90;;;1.50;;
66402;SDS011;53212;52.112;5.144;2022-10-16T11:02:12;13.70;;;1.80;;
66402;SDS011;53212;52.112;5.144;2022-10-16T11:07:39;8.30;;;1.70;;
66402;SDS011;53212;52.112;5.144;2022-10-16T11:10:42;5.40;;;1.50;;
66402;SDS011;53212;52.112;5.144;2022-10-16T11:15:53;5.10;;;1.40;;
66402;SDS011;53212;52.112;5.144;2022-10-16T11:18:37;8.70;;;2.00;;
66402;SDS011;53212;52.112;5.144;2022-10-16T11:21:24;6.80;;;1.60;;
66402;SDS011;53212;52.112;5.144;2022-10-16T11:24:00;7.00;;;1.40;;
66402;SDS011;53212;52.112;5.144;2022-10-16T11:26:34;4.70;;;1.30;;
66402;SDS011;53212;52.112;5.144;2022-10-16T11:29:04;3.60;;;1.40;;
66402;SDS011;53212;52.112;5.144;2022-10-16T11:31:43;8.60;;;1.90;;
66402;SDS011;53212;52.112;5.144;2022-10-16T11:37:23;6.00;;;1.50;;
66402;SDS011;53212;52.112;5.144;2022-10-16T11:39:52;3.70;;;1.10;;
66402;SDS011;53212;52.112;5.144;2022-10-16T11:42:30;6.40;;;1.80;;
66402;SDS011;53212;52.112;5.144;2022-10-16T11:47:57;5.80;;;1.30;;
66402;SDS011;53212;52.112;5.144;2022-10-16T11:53:40;5.60;;;1.50;;
66402;SDS011;53212;52.112;5.144;2022-10-16T11:56:15;9.50;;;2.60;;
66402;SDS011;53212;52.112;5.144;2022-10-16T11:59:02;5.20;;;1.40;;
66402;SDS011;53212;52.112;5.144;2022-10-16T12:01:43;6.10;;;1.90;;
66402;SDS011;53212;52.112;5.144;2022-10-16T12:07:06;9.60;;;1.60;;
66402;SDS011;53212;52.112;5.144;2022-10-16T12:09:38;6.00;;;1.50;;
66402;SDS011;53212;52.112;5.144;2022-10-16T12:12:23;5.10;;;1.60;;
66402;SDS011;53212;52.112;5.144;2022-10-16T12:18:04;10.10;;;1.50;;
66402;SDS011;53212;52.112;5.144;2022-10-16T12:20:32;6.10;;;1.20;;
66402;SDS011;53212;52.112;5.144;2022-10-16T12:23:03;9.20;;;1.50;;
66402;SDS011;53212;52.112;5.144;2022-10-16T12:25:32;5.00;;;1.50;;
66402;SDS011;53212;52.112;5.144;2022-10-16T12:30:41;7.10;;;1.40;;
66402;SDS011;53212;52.112;5.144;2022-10-16T12:33:28;7.30;;;1.40;;
66402;SDS011;53212;52.112;5.144;2022-10-16T12:35:55;5.50;;;1.30;;
66402;SDS011;53212;52.112;5.144;2022-10-16T12:38:32;6.00;;;1.10;;
66402;SDS011;53212;52.112;5.144;2022-10-16T12:41:31;8.70;;;1.90;;
66402;SDS011;53212;52.112;5.144;2022-10-16T12:44:00;5.90;;;1.20;;
66402;SDS011;53212;52.112;5.144;2022-10-16T12:51:53;11.90;;;1.80;;
66402;SDS011;53212;52.112;5.144;2022-10-16T12:54:30;5.00;;;1.30;;
66402;SDS011;53212;52.112;5.144;2022-10-16T12:57:29;8.70;;;1.60;;
66402;SDS011;53212;52.112;5.144;2022-10-16T13:06:00;7.90;;;1.40;;
66402;SDS011;53212;52.112;5.144;2022-10-16T13:08:53;6.80;;;1.20;;
66402;SDS011;53212;52.112;5.144;2022-10-16T13:18:19;6.90;;;1.60;;
66402;SDS011;53212;52.112;5.144;2022-10-16T13:24:21;5.10;;;1.50;;
66402;SDS011;53212;52.112;5.144;2022-10-16T13:30:18;11.20;;;1.80;;
66402;SDS011;53212;52.112;5.144;2022-10-16T13:32:47;5.50;;;1.50;;
66402;SDS011;53212;52.112;5.144;2022-10-16T13:35:20;6.00;;;1.30;;
66402;SDS011;53212;52.112;5.144;2022-10-16T13:37:48;6.20;;;1.50;;
66402;SDS011;53212;52.112;5.144;2022-10-16T13:40:20;6.70;;;1.40;;
66402;SDS011;53212;52.112;5.144;2022-10-16T13:42:48;5.00;;;1.30;;
66402;SDS011;53212;52.112;5.144;2022-10-16T13:45:21;7.50;;;1.80;;
66402;SDS011;53212;52.112;5.144;2022-10-16T13:47:47;4.90;;;1.40;;
66402;SDS011;53212;52.112;5.144;2022-10-16T13:50:17;7.60;;;1.40;;
66402;SDS011;53212;52.112;5.144;2022-10-16T13:52:44;5.10;;;1.40;;
66402;SDS011;53212;52.112;5.144;2022-10-16T13:55:14;8.00;;;1.60;;
66402;SDS011;53212;52.112;5.144;2022-10-16T13:57:41;5.20;;;1.20;;
66402;SDS011;53212;52.112;5.144;2022-10-16T14:00:25;6.10;;;1.60;;
66402;SDS011;53212;52.112;5.144;2022-10-16T14:03:06;8.00;;;2.00;;
66402;SDS011;53212;52.112;5.144;2022-10-16T14:05:45;8.40;;;1.40;;
66402;SDS011;53212;52.112;5.144;2022-10-16T14:08:14;3.60;;;1.30;;
66402;SDS011;53212;52.112;5.144;2022-10-16T14:10:39;7.90;;;1.20;;
66402;SDS011;53212;52.112;5.144;2022-10-16T14:13:06;8.80;;;1.60;;
66402;SDS011;53212;52.112;5.144;2022-10-16T14:15:35;6.30;;;1.40;;
66402;SDS011;53212;52.112;5.144;2022-10-16T14:18:02;4.90;;;1.20;;
66402;SDS011;53212;52.112;5.144;2022-10-16T14:20:30;8.40;;;1.50;;
66402;SDS011;53212;52.112;5.144;2022-10-16T14:25:53;5.40;;;1.50;;
66402;SDS011;53212;52.112;5.144;2022-10-16T14:28:21;5.10;;;1.40;;
66402;SDS011;53212;52.112;5.144;2022-10-16T14:30:52;4.30;;;1.50;;
66402;SDS011;53212;52.112;5.144;2022-10-16T14:38:34;7.80;;;1.70;;
66402;SDS011;53212;52.112;5.144;2022-10-16T14:41:00;4.90;;;1.30;;
66402;SDS011;53212;52.112;5.144;2022-10-16T14:43:40;7.90;;;2.00;;
66402;SDS011;53212;52.112;5.144;2022-10-16T14:46:18;7.80;;;1.50;;
66402;SDS011;53212;52.112;5.144;2022-10-16T14:48:52;8.00;;;1.50;;
66402;SDS011;53212;52.112;5.144;2022-10-16T14:51:26;9.50;;;1.80;;
66402;SDS011;53212;52.112;5.144;2022-10-16T14:53:52;5.50;;;1.30;;
66402;SDS011;53212;52.112;5.144;2022-10-16T14:56:23;8.80;;;2.10;;
66402;SDS011;53212;52.112;5.144;2022-10-16T14:58:50;8.30;;;1.70;;
66402;SDS011;53212;52.112;5.144;2022-10-16T15:01:17;8.00;;;1.50;;
66402;SDS011;53212;52.112;5.144;2022-10-16T15:03:43;11.40;;;1.80;;
66402;SDS011;53212;52.112;5.144;2022-10-16T15:06:12;9.90;;;1.80;;
66402;SDS011;53212;52.112;5.144;2022-10-16T15:08:42;7.50;;;1.60;;
66402;SDS011;53212;52.112;5.144;2022-10-16T15:11:13;8.00;;;1.60;;
66402;SDS011;53212;52.112;5.144;2022-10-16T15:13:41;6.50;;;1.60;;
66402;SDS011;53212;52.112;5.144;2022-10-16T15:16:16;7.10;;;1.70;;
66402;SDS011;53212;52.112;5.144;2022-10-16T15:18:42;6.50;;;1.50;;
66402;SDS011;53212;52.112;5.144;2022-10-16T15:21:12;6.90;;;1.70;;
66402;SDS011;53212;52.112;5.144;2022-10-16T15:23:48;10.00;;;2.60;;
66402;SDS011;53212;52.112;5.144;2022-10-16T15:26:14;7.50;;;2.00;;
66402;SDS011;53212;52.112;5.144;2022-10-16T15:28:40;9.60;;;2.00;;
66402;SDS011;53212;52.112;5.144;2022-10-16T15:31:05;9.80;;;1.90;;
66402;SDS011;53212;52.112;5.144;2022-10-16T15:33:30;6.30;;;1.90;;
66402;SDS011;53212;52.112;5.144;2022-10-16T15:35:59;9.90;;;1.80;;
66402;SDS011;53212;52.112;5.144;2022-10-16T15:38:25;5.70;;;1.50;;
66402;SDS011;53212;52.112;5.144;2022-10-16T15:40:52;8.20;;;1.70;;
66402;SDS011;53212;52.112;5.144;2022-10-16T15:43:17;8.80;;;1.80;;
66402;SDS011;53212;52.112;5.144;2022-10-16T15:45:44;9.20;;;1.70;;
66402;SDS011;53212;52.112;5.144;2022-10-16T15:48:16;7.30;;;1.90;;
66402;SDS011;53212;52.112;5.144;2022-10-16T15:50:42;9.20;;;2.20;;
66402;SDS011;53212;52.112;5.144;2022-10-16T15:53:07;7.50;;;2.10;;
66402;SDS011;53212;52.112;5.144;2022-10-16T15:55:33;7.80;;;2.20;;
66402;SDS011;53212;52.112;5.144;2022-10-16T15:58:01;5.70;;;1.80;;
66402;SDS011;53212;52.112;5.144;2022-10-16T16:00:26;7.10;;;2.00;;
66402;SDS011;53212;52.112;5.144;2022-10-16T16:02:53;9.00;;;2.00;;
66402;SDS011;53212;52.112;5.144;2022-10-16T16:05:20;9.30;;;2.20;;
66402;SDS011;53212;52.112;5.144;2022-10-16T16:07:47;9.80;;;2.50;;
66402;SDS011;53212;52.112;5.144;2022-10-16T16:10:15;11.60;;;2.70;;
66402;SDS011;53212;52.112;5.144;2022-10-16T16:12:41;11.40;;;2.50;;
66402;SDS011;53212;52.112;5.144;2022-10-16T16:15:08;11.70;;;4.30;;
66402;SDS011;53212;52.112;5.144;2022-10-16T16:17:35;25.30;;;12.50;;
66402;SDS011;53212;52.112;5.144;2022-10-16T16:20:02;12.50;;;5.00;;
66402;SDS011;53212;52.112;5.144;2022-10-16T16:22:29;13.50;;;4.60;;
66402;SDS011;53212;52.112;5.144;2022-10-16T16:24:55;9.60;;;2.70;;
66402;SDS011;53212;52.112;5.144;2022-10-16T16:27:20;17.30;;;2.80;;
66402;SDS011;53212;52.112;5.144;2022-10-16T16:29:46;6.70;;;2.10;;
66402;SDS011;53212;52.112;5.144;2022-10-16T16:32:12;8.80;;;2.50;;
66402;SDS011;53212;52.112;5.144;2022-10-16T16:34:38;11.70;;;2.80;;
66402;SDS011;53212;52.112;5.144;2022-10-16T16:37:03;10.90;;;2.40;;
66402;SDS011;53212;52.112;5.144;2022-10-16T16:39:28;7.70;;;2.40;;
66402;SDS011;53212;52.112;5.144;2022-10-16T16:41:56;6.20;;;2.50;;
66402;SDS011;53212;52.112;5.144;2022-10-16T16:44:23;7.80;;;2.30;;
66402;SDS011;53212;52.112;5.144;2022-10-16T16:46:49;7.60;;;2.40;;
66402;SDS011;53212;52.112;5.144;2022-10-16T16:49:14;16.50;;;2.50;;
66402;SDS011;53212;52.112;5.144;2022-10-16T16:51:41;9.40;;;2.90;;
66402;SDS011;53212;52.112;5.144;2022-10-16T16:54:07;6.20;;;2.20;;
66402;SDS011;53212;52.112;5.144;2022-10-16T16:56:34;12.20;;;3.00;;